sensor_id;sensor_type;location;lat;lon;timestamp;temperature;humidity
19242;DHT22;9755;47.790;9.620;2022-08-14T00:01:30;13.10;99.90
19242;DHT22;9755;47.790;9.620;2022-08-14T00:03:57;13.20;99.90
19242;DHT22;9755;47.790;9.620;2022-08-14T00:06:24;13.30;99.90
19242;DHT22;9755;47.790;9.620;2022-08-14T00:08:51;13.20;99.90
19242;DHT22;9755;47.790;9.620;2022-08-14T00:11:19;13.10;99.90
19242;DHT22;9755;47.790;9.620;2022-08-14T00:13:47;13.10;99.90
19242;DHT22;9755;47.790;9.620;2022-08-14T00:16:14;13.10;99.90
19242;DHT22;9755;47.790;9.620;2022-08-14T00:18:41;13.10;99.90
19242;DHT22;9755;47.790;9.620;2022-08-14T00:21:08;13.00;99.90
19242;DHT22;9755;47.790;9.620;2022-08-14T00:23:36;13.00;99.90
19242;DHT22;9755;47.790;9.620;2022-08-14T00:26:03;12.90;99.90
19242;DHT22;9755;47.790;9.620;2022-08-14T00:28:33;12.80;99.90
19242;DHT22;9755;47.790;9.620;2022-08-14T00:31:00;12.90;99.90
19242;DHT22;9755;47.790;9.620;2022-08-14T00:33:28;13.00;99.90
19242;DHT22;9755;47.790;9.620;2022-08-14T00:35:55;12.90;99.90
19242;DHT22;9755;47.790;9.620;2022-08-14T00:38:22;12.90;99.90
19242;DHT22;9755;47.790;9.620;2022-08-14T00:40:49;12.80;99.90
19242;DHT22;9755;47.790;9.620;2022-08-14T00:43:17;12.70;99.90
19242;DHT22;9755;47.790;9.620;2022-08-14T00:45:46;12.40;99.90
19242;DHT22;9755;47.790;9.620;2022-08-14T00:48:13;12.40;99.90
19242;DHT22;9755;47.790;9.620;2022-08-14T00:50:43;12.30;99.90
19242;DHT22;9755;47.790;9.620;2022-08-14T00:53:10;12.50;99.90
19242;DHT22;9755;47.790;9.620;2022-08-14T00:55:37;12.50;99.90
19242;DHT22;9755;47.790;9.620;2022-08-14T00:58:06;12.20;99.90
19242;DHT22;9755;47.790;9.620;2022-08-14T01:00:52;12.00;99.90
19242;DHT22;9755;47.790;9.620;2022-08-14T01:03:20;11.90;99.90
19242;DHT22;9755;47.790;9.620;2022-08-14T01:05:49;12.10;99.90
19242;DHT22;9755;47.790;9.620;2022-08-14T01:08:19;12.40;99.90
19242;DHT22;9755;47.790;9.620;2022-08-14T01:10:47;12.30;99.90
19242;DHT22;9755;47.790;9.620;2022-08-14T01:13:19;12.10;99.90
19242;DHT22;9755;47.790;9.620;2022-08-14T01:15:50;12.00;99.90
19242;DHT22;9755;47.790;9.620;2022-08-14T01:18:20;11.90;99.90
19242;DHT22;9755;47.790;9.620;2022-08-14T01:21:07;11.80;99.90
19242;DHT22;9755;47.790;9.620;2022-08-14T01:23:39;11.90;99.90
19242;DHT22;9755;47.790;9.620;2022-08-14T01:26:07;12.10;99.90
19242;DHT22;9755;47.790;9.620;2022-08-14T01:28:35;12.20;99.90
19242;DHT22;9755;47.790;9.620;2022-08-14T01:31:08;12.20;99.90
19242;DHT22;9755;47.790;9.620;2022-08-14T01:33:37;12.10;99.90
19242;DHT22;9755;47.790;9.620;2022-08-14T01:36:06;12.10;99.90
19242;DHT22;9755;47.790;9.620;2022-08-14T01:38:34;12.10;99.90
19242;DHT22;9755;47.790;9.620;2022-08-14T01:41:05;12.20;99.90
19242;DHT22;9755;47.790;9.620;2022-08-14T01:43:40;12.20;99.90
19242;DHT22;9755;47.790;9.620;2022-08-14T01:46:08;12.20;99.90
19242;DHT22;9755;47.790;9.620;2022-08-14T01:48:37;12.20;99.90
19242;DHT22;9755;47.790;9.620;2022-08-14T01:51:07;12.40;99.90
19242;DHT22;9755;47.790;9.620;2022-08-14T01:53:34;12.70;99.90
19242;DHT22;9755;47.790;9.620;2022-08-14T01:56:04;12.70;99.90
19242;DHT22;9755;47.790;9.620;2022-08-14T01:58:32;12.70;99.90
19242;DHT22;9755;47.790;9.620;2022-08-14T02:00:59;12.70;99.90
19242;DHT22;9755;47.790;9.620;2022-08-14T02:03:31;12.70;99.90
19242;DHT22;9755;47.790;9.620;2022-08-14T02:06:00;12.70;99.90
19242;DHT22;9755;47.790;9.620;2022-08-14T02:08:28;12.70;99.90
19242;DHT22;9755;47.790;9.620;2022-08-14T02:10:57;12.60;99.90
19242;DHT22;9755;47.790;9.620;2022-08-14T02:13:46;12.60;99.90
19242;DHT22;9755;47.790;9.620;2022-08-14T02:16:16;12.50;99.90
19242;DHT22;9755;47.790;9.620;2022-08-14T02:18:43;12.40;99.90
19242;DHT22;9755;47.790;9.620;2022-08-14T02:21:11;12.20;99.90
19242;DHT22;9755;47.790;9.620;2022-08-14T02:23:39;12.10;99.90
19242;DHT22;9755;47.790;9.620;2022-08-14T02:26:15;11.90;99.90
19242;DHT22;9755;47.790;9.620;2022-08-14T02:28:45;11.80;99.90
19242;DHT22;9755;47.790;9.620;2022-08-14T02:31:13;11.70;99.90
19242;DHT22;9755;47.790;9.620;2022-08-14T02:33:40;11.60;99.90
19242;DHT22;9755;47.790;9.620;2022-08-14T02:36:09;11.50;99.90
19242;DHT22;9755;47.790;9.620;2022-08-14T02:38:37;11.40;99.90
19242;DHT22;9755;47.790;9.620;2022-08-14T02:41:07;11.40;99.90
19242;DHT22;9755;47.790;9.620;2022-08-14T02:43:36;11.40;99.90
19242;DHT22;9755;47.790;9.620;2022-08-14T02:46:05;11.30;99.90
19242;DHT22;9755;47.790;9.620;2022-08-14T02:48:35;11.30;99.90
19242;DHT22;9755;47.790;9.620;2022-08-14T02:51:05;11.30;99.90
19242;DHT22;9755;47.790;9.620;2022-08-14T02:53:33;11.30;99.90
19242;DHT22;9755;47.790;9.620;2022-08-14T02:56:01;11.30;99.90
19242;DHT22;9755;47.790;9.620;2022-08-14T02:58:29;11.40;99.90
19242;DHT22;9755;47.790;9.620;2022-08-14T03:00:57;11.40;99.90
19242;DHT22;9755;47.790;9.620;2022-08-14T03:03:25;11.40;99.90
19242;DHT22;9755;47.790;9.620;2022-08-14T03:05:52;11.30;99.90
19242;DHT22;9755;47.790;9.620;2022-08-14T03:08:20;11.20;99.90
19242;DHT22;9755;47.790;9.620;2022-08-14T03:10:47;11.30;99.90
19242;DHT22;9755;47.790;9.620;2022-08-14T03:13:15;11.30;99.90
19242;DHT22;9755;47.790;9.620;2022-08-14T03:15:42;11.40;99.90
19242;DHT22;9755;47.790;9.620;2022-08-14T03:18:13;11.40;99.90
19242;DHT22;9755;47.790;9.620;2022-08-14T03:20:41;11.40;99.90
19242;DHT22;9755;47.790;9.620;2022-08-14T03:23:08;11.30;99.90
19242;DHT22;9755;47.790;9.620;2022-08-14T03:25:35;11.30;99.90
19242;DHT22;9755;47.790;9.620;2022-08-14T03:28:04;11.30;99.90
19242;DHT22;9755;47.790;9.620;2022-08-14T03:30:32;11.30;99.90
19242;DHT22;9755;47.790;9.620;2022-08-14T03:33:00;11.10;99.90
19242;DHT22;9755;47.790;9.620;2022-08-14T03:35:28;10.90;99.90
19242;DHT22;9755;47.790;9.620;2022-08-14T03:38:03;10.80;99.90
19242;DHT22;9755;47.790;9.620;2022-08-14T03:40:36;10.80;99.90
19242;DHT22;9755;47.790;9.620;2022-08-14T03:43:06;10.90;99.90
19242;DHT22;9755;47.790;9.620;2022-08-14T03:45:36;10.90;99.90
19242;DHT22;9755;47.790;9.620;2022-08-14T03:48:03;11.00;99.90
19242;DHT22;9755;47.790;9.620;2022-08-14T03:50:30;11.00;99.90
19242;DHT22;9755;47.790;9.620;2022-08-14T03:53:01;10.90;99.90
19242;DHT22;9755;47.790;9.620;2022-08-14T03:55:29;10.80;99.90
19242;DHT22;9755;47.790;9.620;2022-08-14T03:57:56;10.70;99.90
19242;DHT22;9755;47.790;9.620;2022-08-14T04:00:23;10.70;99.90
19242;DHT22;9755;47.790;9.620;2022-08-14T04:02:50;10.60;99.90
19242;DHT22;9755;47.790;9.620;2022-08-14T04:05:18;10.60;99.90
19242;DHT22;9755;47.790;9.620;2022-08-14T04:07:45;10.70;99.90
19242;DHT22;9755;47.790;9.620;2022-08-14T04:10:14;10.80;99.90
19242;DHT22;9755;47.790;9.620;2022-08-14T04:12:41;10.80;99.90
19242;DHT22;9755;47.790;9.620;2022-08-14T04:15:09;10.90;99.90
19242;DHT22;9755;47.790;9.620;2022-08-14T04:17:36;10.80;99.90
19242;DHT22;9755;47.790;9.620;2022-08-14T04:20:04;10.80;99.90
19242;DHT22;9755;47.790;9.620;2022-08-14T04:22:32;10.90;99.90
19242;DHT22;9755;47.790;9.620;2022-08-14T04:25:00;10.90;99.90
19242;DHT22;9755;47.790;9.620;2022-08-14T04:27:28;11.00;99.90
19242;DHT22;9755;47.790;9.620;2022-08-14T04:29:56;11.00;99.90
19242;DHT22;9755;47.790;9.620;2022-08-14T04:32:23;11.00;99.90
19242;DHT22;9755;47.790;9.620;2022-08-14T04:34:52;10.90;99.90
19242;DHT22;9755;47.790;9.620;2022-08-14T04:37:21;10.90;99.90
19242;DHT22;9755;47.790;9.620;2022-08-14T04:40:09;10.90;99.90
19242;DHT22;9755;47.790;9.620;2022-08-14T04:42:55;10.90;99.90
19242;DHT22;9755;47.790;9.620;2022-08-14T04:45:40;10.90;99.90
19242;DHT22;9755;47.790;9.620;2022-08-14T04:48:09;11.10;99.90
19242;DHT22;9755;47.790;9.620;2022-08-14T04:50:38;11.30;99.90
19242;DHT22;9755;47.790;9.620;2022-08-14T04:53:06;11.60;99.90
19242;DHT22;9755;47.790;9.620;2022-08-14T04:55:33;11.90;99.90
19242;DHT22;9755;47.790;9.620;2022-08-14T04:58:02;12.10;99.90
19242;DHT22;9755;47.790;9.620;2022-08-14T05:00:30;12.30;99.90
19242;DHT22;9755;47.790;9.620;2022-08-14T05:02:57;12.70;99.90
19242;DHT22;9755;47.790;9.620;2022-08-14T05:05:28;13.60;99.90
19242;DHT22;9755;47.790;9.620;2022-08-14T05:07:55;14.80;99.90
19242;DHT22;9755;47.790;9.620;2022-08-14T05:10:22;16.10;99.90
19242;DHT22;9755;47.790;9.620;2022-08-14T05:12:51;17.10;99.90
19242;DHT22;9755;47.790;9.620;2022-08-14T05:15:20;17.70;99.90
19242;DHT22;9755;47.790;9.620;2022-08-14T05:17:47;18.10;99.90
19242;DHT22;9755;47.790;9.620;2022-08-14T05:20:15;18.40;99.90
19242;DHT22;9755;47.790;9.620;2022-08-14T05:22:42;19.00;99.90
19242;DHT22;9755;47.790;9.620;2022-08-14T05:25:10;19.50;99.90
19242;DHT22;9755;47.790;9.620;2022-08-14T05:27:38;19.60;99.90
19242;DHT22;9755;47.790;9.620;2022-08-14T05:30:06;19.60;99.90
19242;DHT22;9755;47.790;9.620;2022-08-14T05:32:35;19.40;99.90
19242;DHT22;9755;47.790;9.620;2022-08-14T05:35:04;19.20;99.90
19242;DHT22;9755;47.790;9.620;2022-08-14T05:37:31;19.00;99.90
19242;DHT22;9755;47.790;9.620;2022-08-14T05:39:58;18.70;99.90
19242;DHT22;9755;47.790;9.620;2022-08-14T05:42:27;18.30;99.90
19242;DHT22;9755;47.790;9.620;2022-08-14T05:44:54;17.90;99.90
19242;DHT22;9755;47.790;9.620;2022-08-14T05:47:21;17.60;99.90
19242;DHT22;9755;47.790;9.620;2022-08-14T05:49:49;17.70;99.90
19242;DHT22;9755;47.790;9.620;2022-08-14T05:52:17;17.40;99.90
19242;DHT22;9755;47.790;9.620;2022-08-14T05:54:44;17.20;99.90
19242;DHT22;9755;47.790;9.620;2022-08-14T05:57:11;17.60;99.90
19242;DHT22;9755;47.790;9.620;2022-08-14T05:59:38;17.30;99.90
19242;DHT22;9755;47.790;9.620;2022-08-14T06:02:06;17.60;99.90
19242;DHT22;9755;47.790;9.620;2022-08-14T06:04:34;18.00;99.90
19242;DHT22;9755;47.790;9.620;2022-08-14T06:07:02;18.20;99.90
19242;DHT22;9755;47.790;9.620;2022-08-14T06:09:30;18.20;99.90
19242;DHT22;9755;47.790;9.620;2022-08-14T06:11:57;18.10;99.90
19242;DHT22;9755;47.790;9.620;2022-08-14T06:14:24;18.20;99.90
19242;DHT22;9755;47.790;9.620;2022-08-14T06:16:51;18.40;99.90
19242;DHT22;9755;47.790;9.620;2022-08-14T06:19:18;18.60;99.90
19242;DHT22;9755;47.790;9.620;2022-08-14T06:21:45;18.90;99.90
19242;DHT22;9755;47.790;9.620;2022-08-14T06:24:14;19.30;99.90
19242;DHT22;9755;47.790;9.620;2022-08-14T06:26:41;19.60;99.90
19242;DHT22;9755;47.790;9.620;2022-08-14T06:29:08;19.90;99.90
19242;DHT22;9755;47.790;9.620;2022-08-14T06:31:36;20.50;99.90
19242;DHT22;9755;47.790;9.620;2022-08-14T06:34:03;21.40;99.90
19242;DHT22;9755;47.790;9.620;2022-08-14T06:36:30;22.60;98.80
19242;DHT22;9755;47.790;9.620;2022-08-14T06:38:57;23.30;96.90
19242;DHT22;9755;47.790;9.620;2022-08-14T06:41:26;24.20;96.30
19242;DHT22;9755;47.790;9.620;2022-08-14T06:43:53;25.70;92.20
19242;DHT22;9755;47.790;9.620;2022-08-14T06:46:20;26.50;87.50
19242;DHT22;9755;47.790;9.620;2022-08-14T06:48:48;26.80;82.30
19242;DHT22;9755;47.790;9.620;2022-08-14T06:51:15;26.40;82.00
19242;DHT22;9755;47.790;9.620;2022-08-14T06:53:42;26.60;80.20
19242;DHT22;9755;47.790;9.620;2022-08-14T06:56:09;26.30;79.10
19242;DHT22;9755;47.790;9.620;2022-08-14T06:58:38;26.90;80.00
19242;DHT22;9755;47.790;9.620;2022-08-14T07:01:05;28.50;77.00
19242;DHT22;9755;47.790;9.620;2022-08-14T07:03:50;29.10;73.30
19242;DHT22;9755;47.790;9.620;2022-08-14T07:06:34;29.80;70.60
19242;DHT22;9755;47.790;9.620;2022-08-14T07:09:02;29.80;67.70
19242;DHT22;9755;47.790;9.620;2022-08-14T07:11:29;29.80;66.40
19242;DHT22;9755;47.790;9.620;2022-08-14T07:13:58;29.70;65.80
19242;DHT22;9755;47.790;9.620;2022-08-14T07:16:25;29.60;64.60
19242;DHT22;9755;47.790;9.620;2022-08-14T07:18:52;30.30;63.20
19242;DHT22;9755;47.790;9.620;2022-08-14T07:21:19;29.80;61.50
19242;DHT22;9755;47.790;9.620;2022-08-14T07:23:46;30.10;61.80
19242;DHT22;9755;47.790;9.620;2022-08-14T07:26:13;29.80;61.10
19242;DHT22;9755;47.790;9.620;2022-08-14T07:28:41;30.90;60.70
19242;DHT22;9755;47.790;9.620;2022-08-14T07:31:10;30.70;60.40
19242;DHT22;9755;47.790;9.620;2022-08-14T07:33:40;29.50;60.30
19242;DHT22;9755;47.790;9.620;2022-08-14T07:36:10;29.60;60.70
19242;DHT22;9755;47.790;9.620;2022-08-14T07:38:37;29.60;59.80
19242;DHT22;9755;47.790;9.620;2022-08-14T07:41:08;29.50;62.00
19242;DHT22;9755;47.790;9.620;2022-08-14T07:43:36;30.40;59.60
19242;DHT22;9755;47.790;9.620;2022-08-14T07:46:04;29.60;58.80
19242;DHT22;9755;47.790;9.620;2022-08-14T07:48:37;30.40;58.90
19242;DHT22;9755;47.790;9.620;2022-08-14T07:51:04;31.30;59.80
19242;DHT22;9755;47.790;9.620;2022-08-14T07:53:32;32.40;58.60
19242;DHT22;9755;47.790;9.620;2022-08-14T07:55:59;32.10;57.40
19242;DHT22;9755;47.790;9.620;2022-08-14T07:58:26;32.80;56.70
19242;DHT22;9755;47.790;9.620;2022-08-14T08:00:54;33.50;56.20
19242;DHT22;9755;47.790;9.620;2022-08-14T08:03:24;34.70;53.60
19242;DHT22;9755;47.790;9.620;2022-08-14T08:05:53;34.80;50.80
19242;DHT22;9755;47.790;9.620;2022-08-14T08:08:20;33.90;48.70
19242;DHT22;9755;47.790;9.620;2022-08-14T08:10:48;32.60;49.00
19242;DHT22;9755;47.790;9.620;2022-08-14T08:13:17;32.70;49.20
19242;DHT22;9755;47.790;9.620;2022-08-14T08:15:47;33.70;50.60
19242;DHT22;9755;47.790;9.620;2022-08-14T08:18:15;33.60;45.40
19242;DHT22;9755;47.790;9.620;2022-08-14T08:20:45;33.80;47.30
19242;DHT22;9755;47.790;9.620;2022-08-14T08:23:14;34.60;45.50
19242;DHT22;9755;47.790;9.620;2022-08-14T08:25:43;33.90;46.10
19242;DHT22;9755;47.790;9.620;2022-08-14T08:28:12;34.30;45.50
19242;DHT22;9755;47.790;9.620;2022-08-14T08:30:41;35.30;45.00
19242;DHT22;9755;47.790;9.620;2022-08-14T08:33:09;35.10;44.40
19242;DHT22;9755;47.790;9.620;2022-08-14T08:40:35;35.30;42.10
19242;DHT22;9755;47.790;9.620;2022-08-14T08:43:05;36.80;41.30
19242;DHT22;9755;47.790;9.620;2022-08-14T08:45:34;37.30;38.70
19242;DHT22;9755;47.790;9.620;2022-08-14T08:48:02;37.60;38.50
19242;DHT22;9755;47.790;9.620;2022-08-14T08:53:00;38.10;37.90
19242;DHT22;9755;47.790;9.620;2022-08-14T08:55:29;39.00;33.50
19242;DHT22;9755;47.790;9.620;2022-08-14T08:57:59;38.70;31.90
19242;DHT22;9755;47.790;9.620;2022-08-14T09:00:27;39.30;31.60
19242;DHT22;9755;47.790;9.620;2022-08-14T09:03:02;40.50;30.00
19242;DHT22;9755;47.790;9.620;2022-08-14T09:05:31;40.60;27.70
19242;DHT22;9755;47.790;9.620;2022-08-14T09:08:09;39.30;27.60
19242;DHT22;9755;47.790;9.620;2022-08-14T09:10:37;39.90;27.10
19242;DHT22;9755;47.790;9.620;2022-08-14T09:13:05;39.20;27.60
19242;DHT22;9755;47.790;9.620;2022-08-14T09:15:33;39.30;27.20
19242;DHT22;9755;47.790;9.620;2022-08-14T09:18:00;39.30;27.30
19242;DHT22;9755;47.790;9.620;2022-08-14T09:20:27;38.30;27.60
19242;DHT22;9755;47.790;9.620;2022-08-14T09:22:54;38.20;27.10
19242;DHT22;9755;47.790;9.620;2022-08-14T09:25:22;38.80;27.10
19242;DHT22;9755;47.790;9.620;2022-08-14T09:27:49;39.10;26.80
19242;DHT22;9755;47.790;9.620;2022-08-14T09:30:17;39.50;26.10
19242;DHT22;9755;47.790;9.620;2022-08-14T09:33:03;40.10;25.20
19242;DHT22;9755;47.790;9.620;2022-08-14T09:35:46;40.20;25.50
19242;DHT22;9755;47.790;9.620;2022-08-14T09:38:21;38.90;24.80
19242;DHT22;9755;47.790;9.620;2022-08-14T09:40:58;37.00;25.20
19242;DHT22;9755;47.790;9.620;2022-08-14T09:43:32;38.40;26.30
19242;DHT22;9755;47.790;9.620;2022-08-14T09:46:06;38.40;26.20
19242;DHT22;9755;47.790;9.620;2022-08-14T09:48:33;39.50;25.20
19242;DHT22;9755;47.790;9.620;2022-08-14T09:51:03;40.30;23.90
19242;DHT22;9755;47.790;9.620;2022-08-14T09:53:37;39.90;24.10
19242;DHT22;9755;47.790;9.620;2022-08-14T09:56:09;39.30;24.80
19242;DHT22;9755;47.790;9.620;2022-08-14T09:58:38;38.20;24.80
19242;DHT22;9755;47.790;9.620;2022-08-14T10:01:12;38.40;25.50
19242;DHT22;9755;47.790;9.620;2022-08-14T10:03:47;39.90;25.10
19242;DHT22;9755;47.790;9.620;2022-08-14T10:06:16;40.60;23.60
19242;DHT22;9755;47.790;9.620;2022-08-14T10:08:46;40.50;23.20
19242;DHT22;9755;47.790;9.620;2022-08-14T10:11:17;40.90;22.90
19242;DHT22;9755;47.790;9.620;2022-08-14T10:13:46;40.10;23.40
19242;DHT22;9755;47.790;9.620;2022-08-14T10:16:20;39.90;21.90
19242;DHT22;9755;47.790;9.620;2022-08-14T10:19:01;39.10;22.80
19242;DHT22;9755;47.790;9.620;2022-08-14T10:21:29;39.60;22.70
19242;DHT22;9755;47.790;9.620;2022-08-14T10:23:57;39.80;22.10
19242;DHT22;9755;47.790;9.620;2022-08-14T10:26:24;39.10;21.90
19242;DHT22;9755;47.790;9.620;2022-08-14T10:28:52;38.50;23.50
19242;DHT22;9755;47.790;9.620;2022-08-14T10:31:25;39.50;23.30
19242;DHT22;9755;47.790;9.620;2022-08-14T10:33:59;40.30;22.10
19242;DHT22;9755;47.790;9.620;2022-08-14T10:36:27;40.70;22.20
19242;DHT22;9755;47.790;9.620;2022-08-14T10:38:56;41.20;21.30
19242;DHT22;9755;47.790;9.620;2022-08-14T10:41:34;40.80;21.40
19242;DHT22;9755;47.790;9.620;2022-08-14T10:44:06;40.80;21.20
19242;DHT22;9755;47.790;9.620;2022-08-14T10:46:41;40.80;21.60
19242;DHT22;9755;47.790;9.620;2022-08-14T10:49:19;41.10;20.30
19242;DHT22;9755;47.790;9.620;2022-08-14T10:51:58;40.10;21.00
19242;DHT22;9755;47.790;9.620;2022-08-14T10:54:30;39.70;20.30
19242;DHT22;9755;47.790;9.620;2022-08-14T10:56:57;38.50;20.40
19242;DHT22;9755;47.790;9.620;2022-08-14T10:59:24;39.60;20.90
19242;DHT22;9755;47.790;9.620;2022-08-14T11:01:53;40.30;20.70
19242;DHT22;9755;47.790;9.620;2022-08-14T11:04:22;40.30;20.60
19242;DHT22;9755;47.790;9.620;2022-08-14T11:06:53;40.90;20.10
19242;DHT22;9755;47.790;9.620;2022-08-14T11:09:21;40.60;18.50
19242;DHT22;9755;47.790;9.620;2022-08-14T11:11:54;37.80;19.50
19242;DHT22;9755;47.790;9.620;2022-08-14T11:14:21;37.70;21.40
19242;DHT22;9755;47.790;9.620;2022-08-14T11:16:49;38.90;20.30
19242;DHT22;9755;47.790;9.620;2022-08-14T11:19:18;40.00;19.90
19242;DHT22;9755;47.790;9.620;2022-08-14T12:01:29;41.10;18.90
19242;DHT22;9755;47.790;9.620;2022-08-14T12:04:08;39.00;13.50
19242;DHT22;9755;47.790;9.620;2022-08-14T12:06:46;38.80;14.30
19242;DHT22;9755;47.790;9.620;2022-08-14T12:09:29;38.90;13.20
19242;DHT22;9755;47.790;9.620;2022-08-14T12:11:56;39.20;12.60
19242;DHT22;9755;47.790;9.620;2022-08-14T12:14:24;38.80;13.40
19242;DHT22;9755;47.790;9.620;2022-08-14T12:17:02;38.60;14.10
19242;DHT22;9755;47.790;9.620;2022-08-14T12:19:45;39.20;13.30
19242;DHT22;9755;47.790;9.620;2022-08-14T12:22:13;38.50;10.90
19242;DHT22;9755;47.790;9.620;2022-08-14T12:24:42;37.80;12.20
19242;DHT22;9755;47.790;9.620;2022-08-14T12:27:10;37.20;11.50
19242;DHT22;9755;47.790;9.620;2022-08-14T12:29:49;36.50;12.20
19242;DHT22;9755;47.790;9.620;2022-08-14T12:32:17;36.40;13.30
19242;DHT22;9755;47.790;9.620;2022-08-14T12:34:51;36.10;12.30
19242;DHT22;9755;47.790;9.620;2022-08-14T12:37:28;36.80;12.50
19242;DHT22;9755;47.790;9.620;2022-08-14T12:40:08;37.50;11.90
19242;DHT22;9755;47.790;9.620;2022-08-14T12:42:35;37.30;11.30
19242;DHT22;9755;47.790;9.620;2022-08-14T12:45:03;36.70;10.90
19242;DHT22;9755;47.790;9.620;2022-08-14T12:47:31;36.40;11.70
19242;DHT22;9755;47.790;9.620;2022-08-14T12:49:58;36.60;11.70
19242;DHT22;9755;47.790;9.620;2022-08-14T12:52:30;36.90;12.80
19242;DHT22;9755;47.790;9.620;2022-08-14T12:55:00;36.80;12.30
19242;DHT22;9755;47.790;9.620;2022-08-14T12:57:35;37.20;12.50
19242;DHT22;9755;47.790;9.620;2022-08-14T13:00:08;36.20;12.60
19242;DHT22;9755;47.790;9.620;2022-08-14T13:02:38;34.50;13.10
19242;DHT22;9755;47.790;9.620;2022-08-14T13:05:07;34.10;14.10
19242;DHT22;9755;47.790;9.620;2022-08-14T13:07:35;33.60;14.30
19242;DHT22;9755;47.790;9.620;2022-08-14T13:10:07;33.40;15.30
19242;DHT22;9755;47.790;9.620;2022-08-14T13:12:37;33.50;18.00
19242;DHT22;9755;47.790;9.620;2022-08-14T13:15:06;33.40;21.10
19242;DHT22;9755;47.790;9.620;2022-08-14T13:17:40;33.00;22.20
19242;DHT22;9755;47.790;9.620;2022-08-14T13:20:09;33.00;21.80
19242;DHT22;9755;47.790;9.620;2022-08-14T13:22:37;32.90;22.70
19242;DHT22;9755;47.790;9.620;2022-08-14T13:25:08;32.60;22.20
19242;DHT22;9755;47.790;9.620;2022-08-14T13:27:35;32.40;22.50
19242;DHT22;9755;47.790;9.620;2022-08-14T13:30:06;32.10;23.40
19242;DHT22;9755;47.790;9.620;2022-08-14T13:32:34;32.20;23.60
19242;DHT22;9755;47.790;9.620;2022-08-14T13:35:05;31.80;23.50
19242;DHT22;9755;47.790;9.620;2022-08-14T13:37:33;31.60;24.20
19242;DHT22;9755;47.790;9.620;2022-08-14T13:40:00;31.90;24.10
19242;DHT22;9755;47.790;9.620;2022-08-14T13:42:29;31.70;22.80
19242;DHT22;9755;47.790;9.620;2022-08-14T13:44:58;31.40;23.40
19242;DHT22;9755;47.790;9.620;2022-08-14T13:47:26;31.10;22.40
19242;DHT22;9755;47.790;9.620;2022-08-14T13:49:59;30.50;22.60
19242;DHT22;9755;47.790;9.620;2022-08-14T13:52:29;30.50;23.30
19242;DHT22;9755;47.790;9.620;2022-08-14T13:54:59;30.60;23.60
19242;DHT22;9755;47.790;9.620;2022-08-14T13:57:31;30.90;24.00
19242;DHT22;9755;47.790;9.620;2022-08-14T14:00:06;31.00;24.10
19242;DHT22;9755;47.790;9.620;2022-08-14T14:02:36;30.90;24.00
19242;DHT22;9755;47.790;9.620;2022-08-14T14:05:05;30.50;24.00
19242;DHT22;9755;47.790;9.620;2022-08-14T14:07:34;30.20;24.10
19242;DHT22;9755;47.790;9.620;2022-08-14T14:10:05;30.00;24.30
19242;DHT22;9755;47.790;9.620;2022-08-14T14:12:35;30.00;24.70
19242;DHT22;9755;47.790;9.620;2022-08-14T14:15:04;30.00;24.20
19242;DHT22;9755;47.790;9.620;2022-08-14T14:17:34;30.40;24.50
19242;DHT22;9755;47.790;9.620;2022-08-14T14:20:03;30.40;22.70
19242;DHT22;9755;47.790;9.620;2022-08-14T14:22:30;30.40;23.30
19242;DHT22;9755;47.790;9.620;2022-08-14T14:24:58;30.20;24.20
19242;DHT22;9755;47.790;9.620;2022-08-14T14:27:26;30.20;24.20
19242;DHT22;9755;47.790;9.620;2022-08-14T14:29:57;30.30;24.90
19242;DHT22;9755;47.790;9.620;2022-08-14T14:32:28;30.30;24.60
19242;DHT22;9755;47.790;9.620;2022-08-14T14:34:59;30.40;24.20
19242;DHT22;9755;47.790;9.620;2022-08-14T14:37:29;30.40;25.00
19242;DHT22;9755;47.790;9.620;2022-08-14T14:39:57;30.50;25.20
19242;DHT22;9755;47.790;9.620;2022-08-14T14:42:27;30.40;24.40
19242;DHT22;9755;47.790;9.620;2022-08-14T14:45:11;30.00;24.10
19242;DHT22;9755;47.790;9.620;2022-08-14T14:47:39;30.10;23.90
19242;DHT22;9755;47.790;9.620;2022-08-14T14:50:08;30.20;24.20
19242;DHT22;9755;47.790;9.620;2022-08-14T14:52:37;30.10;23.60
19242;DHT22;9755;47.790;9.620;2022-08-14T14:55:06;29.70;23.80
19242;DHT22;9755;47.790;9.620;2022-08-14T14:57:34;30.00;24.00
19242;DHT22;9755;47.790;9.620;2022-08-14T15:00:04;30.10;24.10
19242;DHT22;9755;47.790;9.620;2022-08-14T15:02:36;30.00;24.60
19242;DHT22;9755;47.790;9.620;2022-08-14T15:05:07;30.10;24.70
19242;DHT22;9755;47.790;9.620;2022-08-14T15:07:35;30.00;25.10
19242;DHT22;9755;47.790;9.620;2022-08-14T15:10:03;29.90;25.40
19242;DHT22;9755;47.790;9.620;2022-08-14T15:12:31;29.80;24.80
19242;DHT22;9755;47.790;9.620;2022-08-14T15:14:58;29.50;24.60
19242;DHT22;9755;47.790;9.620;2022-08-14T15:17:27;29.40;24.80
19242;DHT22;9755;47.790;9.620;2022-08-14T15:19:58;29.40;24.60
19242;DHT22;9755;47.790;9.620;2022-08-14T15:22:28;29.20;24.70
19242;DHT22;9755;47.790;9.620;2022-08-14T15:24:55;29.20;25.20
19242;DHT22;9755;47.790;9.620;2022-08-14T15:27:22;29.30;25.20
19242;DHT22;9755;47.790;9.620;2022-08-14T15:29:49;29.10;25.20
19242;DHT22;9755;47.790;9.620;2022-08-14T15:32:16;29.20;25.80
19242;DHT22;9755;47.790;9.620;2022-08-14T15:34:44;29.30;26.20
19242;DHT22;9755;47.790;9.620;2022-08-14T15:37:12;29.50;26.40
19242;DHT22;9755;47.790;9.620;2022-08-14T15:39:39;29.40;25.50
19242;DHT22;9755;47.790;9.620;2022-08-14T15:42:07;29.40;25.90
19242;DHT22;9755;47.790;9.620;2022-08-14T15:44:35;29.40;25.60
19242;DHT22;9755;47.790;9.620;2022-08-14T15:47:03;29.30;25.80
19242;DHT22;9755;47.790;9.620;2022-08-14T15:49:32;29.20;26.20
19242;DHT22;9755;47.790;9.620;2022-08-14T15:52:01;29.30;26.80
19242;DHT22;9755;47.790;9.620;2022-08-14T15:54:29;29.60;27.80
19242;DHT22;9755;47.790;9.620;2022-08-14T15:56:58;30.10;28.10
19242;DHT22;9755;47.790;9.620;2022-08-14T15:59:26;30.20;27.50
19242;DHT22;9755;47.790;9.620;2022-08-14T16:02:13;30.70;28.40
19242;DHT22;9755;47.790;9.620;2022-08-14T16:04:39;30.70;28.60
19242;DHT22;9755;47.790;9.620;2022-08-14T16:07:08;30.60;28.40
19242;DHT22;9755;47.790;9.620;2022-08-14T16:09:35;30.70;29.20
19242;DHT22;9755;47.790;9.620;2022-08-14T16:12:03;30.60;29.90
19242;DHT22;9755;47.790;9.620;2022-08-14T16:14:30;30.70;30.30
19242;DHT22;9755;47.790;9.620;2022-08-14T16:16:59;30.80;30.50
19242;DHT22;9755;47.790;9.620;2022-08-14T16:19:27;31.00;30.60
19242;DHT22;9755;47.790;9.620;2022-08-14T16:21:59;31.00;31.20
19242;DHT22;9755;47.790;9.620;2022-08-14T16:24:31;30.80;31.40
19242;DHT22;9755;47.790;9.620;2022-08-14T16:27:00;30.60;31.50
19242;DHT22;9755;47.790;9.620;2022-08-14T16:29:29;30.60;31.50
19242;DHT22;9755;47.790;9.620;2022-08-14T16:31:57;30.40;32.00
19242;DHT22;9755;47.790;9.620;2022-08-14T16:34:25;30.20;32.80
19242;DHT22;9755;47.790;9.620;2022-08-14T16:36:53;30.30;33.10
19242;DHT22;9755;47.790;9.620;2022-08-14T16:39:22;30.40;33.40
19242;DHT22;9755;47.790;9.620;2022-08-14T16:41:53;30.40;33.60
19242;DHT22;9755;47.790;9.620;2022-08-14T16:44:24;30.30;33.80
19242;DHT22;9755;47.790;9.620;2022-08-14T16:47:04;30.30;33.80